createdAt,value
2019-04-05T00:00:34.152Z,18.10
2019-04-05T00:03:03.540Z,18.00
2019-04-05T00:05:32.844Z,13.87
2019-04-05T00:08:02.050Z,15.30
2019-04-05T00:10:31.572Z,14.37
2019-04-05T00:13:00.780Z,16.10
2019-04-05T00:15:29.813Z,15.30
2019-04-05T00:17:59.797Z,14.27
2019-04-05T00:20:29.071Z,15.20
2019-04-05T00:22:58.229Z,16.47
2019-04-05T00:25:27.426Z,14.60
2019-04-05T00:27:56.789Z,13.67
2019-04-05T00:30:25.817Z,15.17
2019-04-05T00:32:54.814Z,13.33
2019-04-05T00:35:24.390Z,16.57
2019-04-05T00:37:54.148Z,15.97
2019-04-05T00:40:23.321Z,17.47
2019-04-05T00:42:52.339Z,15.73
2019-04-05T00:45:27.896Z,17.90
2019-04-05T00:47:52.188Z,19.43
2019-04-05T00:50:21.129Z,20.70
2019-04-05T00:52:50.516Z,21.70
2019-04-05T00:55:19.758Z,19.87
2019-04-05T00:57:49.545Z,18.00
2019-04-05T01:00:18.996Z,21.20
2019-04-05T01:02:47.907Z,16.40
2019-04-05T01:05:17.111Z,19.83
2019-04-05T01:07:46.381Z,18.80
2019-04-05T01:10:16.165Z,19.30
2019-04-05T01:12:46.577Z,15.77
2019-04-05T01:15:15.844Z,20.17
2019-04-05T01:17:45.098Z,18.03
2019-04-05T01:20:14.368Z,17.57
2019-04-05T01:22:44.400Z,21.23
2019-04-05T01:25:13.900Z,22.33
2019-04-05T01:27:43.213Z,19.13
2019-04-05T01:30:13.424Z,23.63
2019-04-05T01:32:42.725Z,24.20
2019-04-05T01:35:13.277Z,20.37
2019-04-05T01:37:43.070Z,21.80
2019-04-05T01:40:12.190Z,25.90
2019-04-05T01:42:42.026Z,21.47
2019-04-05T01:45:10.937Z,21.50
2019-04-05T01:47:41.072Z,19.10
2019-04-05T01:50:10.663Z,20.87
2019-04-05T01:52:40.252Z,17.97
2019-04-05T01:55:10.390Z,20.37
2019-04-05T01:57:39.877Z,17.90
2019-04-05T02:00:10.336Z,19.03
2019-04-05T02:02:39.630Z,23.33
2019-04-05T02:05:09.115Z,20.47
2019-04-05T02:07:38.510Z,19.27
2019-04-05T02:10:08.485Z,22.20
2019-04-05T02:12:38.449Z,15.63
2019-04-05T02:15:08.109Z,20.67
2019-04-05T02:17:37.684Z,21.53
2019-04-05T02:20:08.123Z,31.47
2019-04-05T02:22:37.033Z,18.83
2019-04-05T02:25:06.581Z,65.97
2019-04-05T02:27:35.870Z,25.30
2019-04-05T02:30:05.933Z,18.13
2019-04-05T02:32:34.908Z,21.57
2019-04-05T02:35:04.576Z,24.00
2019-04-05T02:37:33.793Z,23.23
2019-04-05T02:40:03.048Z,18.50
2019-04-05T02:42:33.714Z,18.13
2019-04-05T02:45:03.058Z,18.20
2019-04-05T02:47:32.078Z,20.87
2019-04-05T02:50:02.124Z,35.13
2019-04-05T02:52:31.476Z,21.27
2019-04-05T02:55:00.784Z,22.60
2019-04-05T02:57:30.626Z,33.70
2019-04-05T02:59:59.867Z,24.20
2019-04-05T03:02:29.273Z,23.50
2019-04-05T03:04:58.645Z,26.07
2019-04-05T03:07:27.984Z,23.43
2019-04-05T03:12:39.779Z,21.97
2019-04-05T03:15:09.177Z,26.40
2019-04-05T03:17:38.566Z,25.37
2019-04-05T03:20:08.971Z,21.07
2019-04-05T03:22:38.728Z,27.03
2019-04-05T03:25:08.131Z,22.70
2019-04-05T03:27:37.890Z,27.37
2019-04-05T03:30:06.989Z,26.10
2019-04-05T03:32:35.961Z,21.67
2019-04-05T03:35:05.462Z,23.20
2019-04-05T03:37:34.520Z,24.00
2019-04-05T03:40:04.013Z,27.20
2019-04-05T03:42:32.921Z,26.57
2019-04-05T03:45:01.956Z,30.43
2019-04-05T03:47:31.540Z,28.87
2019-04-05T03:50:00.495Z,29.73
2019-04-05T03:52:29.713Z,27.17
2019-04-05T03:54:59.285Z,25.23
2019-04-05T03:57:28.400Z,29.60
2019-04-05T03:59:57.749Z,28.97
2019-04-05T04:02:27.261Z,30.50
2019-04-05T04:04:56.183Z,29.10
2019-04-05T04:07:25.967Z,25.80
2019-04-05T04:09:55.183Z,25.07
2019-04-05T04:12:24.338Z,27.47
2019-04-05T04:14:54.584Z,28.23
2019-04-05T04:17:24.661Z,26.40
2019-04-05T04:19:54.141Z,33.27
2019-04-05T04:22:29.045Z,26.40
2019-04-05T04:24:58.747Z,27.67
2019-04-05T04:27:30.015Z,27.33
2019-04-05T04:30:00.474Z,24.87
2019-04-05T04:32:29.958Z,28.47
2019-04-05T04:34:59.510Z,29.00
2019-04-05T04:37:29.006Z,29.27
2019-04-05T04:39:59.308Z,51.07
2019-04-05T04:42:29.557Z,26.00
2019-04-05T04:45:11.370Z,31.97
2019-04-05T04:47:31.502Z,26.87
2019-04-05T04:50:01.136Z,28.50
2019-04-05T04:52:34.682Z,35.13
2019-04-05T04:55:04.874Z,31.30
2019-04-05T04:57:34.242Z,30.13
2019-04-05T05:00:04.172Z,33.33
2019-04-05T05:02:33.883Z,39.53
2019-04-05T05:05:03.074Z,36.43
2019-04-05T05:07:32.060Z,32.93
2019-04-05T05:10:03.275Z,35.77
2019-04-05T05:12:32.713Z,39.87
2019-04-05T05:15:03.231Z,28.93
2019-04-05T05:17:38.302Z,39.93
2019-04-05T05:20:05.143Z,40.40
2019-04-05T05:22:34.689Z,33.40
2019-04-05T05:25:04.215Z,36.87
2019-04-05T05:27:34.405Z,36.47
2019-04-05T05:30:04.386Z,29.67
2019-04-05T05:32:35.709Z,36.13
2019-04-05T05:35:04.975Z,38.87
2019-04-05T05:37:35.154Z,35.40
2019-04-05T05:40:05.411Z,38.17
2019-04-05T05:42:34.939Z,47.17
2019-04-05T05:47:55.198Z,37.83
2019-04-05T05:50:24.865Z,42.77
2019-04-05T05:52:54.614Z,46.10
2019-04-05T05:55:23.802Z,43.90
2019-04-05T05:57:54.951Z,55.47
2019-04-05T06:00:25.093Z,50.60
2019-04-05T06:02:54.319Z,45.23
2019-04-05T06:05:24.330Z,45.30
2019-04-05T06:07:54.202Z,46.83
2019-04-05T06:10:23.576Z,47.13
2019-04-05T06:12:53.107Z,55.83
2019-04-05T06:15:22.385Z,48.87
2019-04-05T06:18:03.844Z,58.60
2019-04-05T06:20:23.463Z,55.57
2019-04-05T06:22:53.053Z,49.07
2019-04-05T06:25:23.390Z,45.17
2019-04-05T06:27:52.995Z,48.30
2019-04-05T06:30:22.647Z,50.60
2019-04-05T06:32:56.509Z,57.33
2019-04-05T06:35:25.714Z,49.53
2019-04-05T06:37:55.365Z,60.27
2019-04-05T06:40:40.039Z,54.87
2019-04-05T06:43:06.910Z,46.80
2019-04-05T06:45:47.453Z,59.90
2019-04-05T06:48:21.322Z,49.47
2019-04-05T06:50:51.075Z,55.13
2019-04-05T06:53:21.690Z,54.07
2019-04-05T06:55:52.796Z,72.40
2019-04-05T06:58:29.004Z,54.73
2019-04-05T07:00:57.214Z,57.70
2019-04-05T07:03:45.365Z,69.83
2019-04-05T07:06:16.496Z,53.60
2019-04-05T07:08:53.729Z,53.27
2019-04-05T07:11:17.525Z,60.50
2019-04-05T07:13:47.946Z,53.07
2019-04-05T07:16:17.238Z,62.33
2019-04-05T07:18:46.907Z,60.70
2019-04-05T07:21:17.523Z,52.53
2019-04-05T07:23:47.615Z,51.17
2019-04-05T07:26:17.253Z,53.77
2019-04-05T07:28:46.389Z,43.73
2019-04-05T07:31:15.995Z,44.03
2019-04-05T07:33:45.178Z,41.20
2019-04-05T07:36:15.270Z,42.93
2019-04-05T07:38:45.367Z,48.47
2019-04-05T07:41:18.097Z,45.57
2019-04-05T07:43:48.283Z,45.63
2019-04-05T07:46:18.574Z,41.80
2019-04-05T07:48:49.206Z,35.33
2019-04-05T07:51:18.738Z,38.07
2019-04-05T07:53:50.337Z,43.57
2019-04-05T07:56:20.099Z,40.27
2019-04-05T07:58:49.241Z,42.50
2019-04-05T08:01:18.463Z,47.30
2019-04-05T08:03:48.460Z,56.27
2019-04-05T08:06:19.184Z,51.37
2019-04-05T08:09:09.986Z,43.43
2019-04-05T08:11:40.074Z,40.90
2019-04-05T08:14:10.757Z,37.53
2019-04-05T08:16:40.206Z,33.30
2019-04-05T08:19:14.672Z,40.17
2019-04-05T08:21:45.153Z,37.43
2019-04-05T08:24:18.122Z,33.40
2019-04-05T08:26:47.547Z,40.53
2019-04-05T08:29:17.061Z,44.80
2019-04-05T08:31:47.140Z,50.00
2019-04-05T08:34:38.728Z,33.73
2019-04-05T08:37:08.817Z,38.47
2019-04-05T08:39:41.466Z,36.43
2019-04-05T08:42:11.987Z,42.23
2019-04-05T08:44:41.804Z,43.20
2019-04-05T08:47:11.136Z,38.63
2019-04-05T08:49:41.049Z,36.97
2019-04-05T08:52:31.675Z,30.53
2019-04-05T08:55:06.530Z,44.00
2019-04-05T08:57:40.558Z,34.20
2019-04-05T09:00:10.192Z,37.70
2019-04-05T09:02:43.819Z,43.53
2019-04-05T09:05:14.452Z,33.10
2019-04-05T09:07:48.887Z,42.60
2019-04-05T09:10:18.528Z,49.57
2019-04-05T09:12:49.023Z,63.07
2019-04-05T09:15:20.466Z,29.80
2019-04-05T09:18:04.538Z,43.73
2019-04-05T09:20:36.643Z,35.77
2019-04-05T09:23:07.726Z,36.87
2019-04-05T09:28:27.036Z,34.17
2019-04-05T09:30:58.366Z,38.97
2019-04-05T09:33:37.996Z,36.83
2019-04-05T09:36:11.387Z,32.50
2019-04-05T09:38:53.421Z,39.03
2019-04-05T09:41:40.331Z,28.77
2019-04-05T09:44:11.493Z,31.17
2019-04-05T09:46:47.981Z,23.60
2019-04-05T09:49:16.293Z,38.60
2019-04-05T09:51:49.289Z,30.47
2019-04-05T09:54:19.314Z,23.83
2019-04-05T09:56:53.263Z,28.43
2019-04-05T10:00:04.213Z,31.97
2019-04-05T10:03:18.443Z,35.53
2019-04-05T10:05:50.714Z,28.60
2019-04-05T10:08:20.078Z,35.73
2019-04-05T10:10:50.179Z,39.87
2019-04-05T10:13:39.265Z,31.43
2019-04-05T10:16:36.663Z,35.57
2019-04-05T10:19:21.179Z,33.20
2019-04-05T10:22:09.888Z,41.63
2019-04-05T10:24:53.202Z,41.53
2019-04-05T10:27:41.593Z,44.97
2019-04-05T10:30:14.397Z,39.20
2019-04-05T10:32:46.832Z,36.20
2019-04-05T10:35:19.281Z,37.07
2019-04-05T10:38:10.554Z,43.47
2019-04-05T10:40:40.309Z,36.87
2019-04-05T10:43:14.207Z,35.47
2019-04-05T10:45:43.418Z,36.53
2019-04-05T10:48:28.932Z,42.23
2019-04-05T10:50:58.611Z,44.50
2019-04-05T10:53:28.732Z,32.43
2019-04-05T10:55:58.397Z,32.70
2019-04-05T10:58:28.354Z,31.40
2019-04-05T11:00:58.069Z,34.20
2019-04-05T11:03:33.365Z,38.80
2019-04-05T11:06:03.128Z,31.43
2019-04-05T11:08:33.831Z,36.03
2019-04-05T11:11:03.519Z,27.13
2019-04-05T11:13:33.150Z,29.10
2019-04-05T11:48:12.936Z,37.43
2019-04-05T11:50:42.272Z,38.57
2019-04-05T11:53:11.841Z,28.80
2019-04-05T11:55:42.765Z,29.13
2019-04-05T11:58:12.317Z,33.90
2019-04-05T12:00:47.265Z,30.63
2019-04-05T12:03:17.152Z,36.80
2019-04-05T12:05:46.625Z,32.80
2019-04-05T12:08:16.055Z,26.73
2019-04-05T12:10:45.316Z,37.07
2019-04-05T12:13:15.069Z,26.67
2019-04-05T12:15:44.064Z,27.90
2019-04-05T12:18:16.044Z,33.30
2019-04-05T12:20:52.005Z,29.33
2019-04-05T12:23:16.067Z,27.53
2019-04-05T12:25:45.436Z,34.30
2019-04-05T12:28:14.438Z,26.77
2019-04-05T12:30:46.075Z,28.77
2019-04-05T12:33:19.248Z,28.77
2019-04-05T12:35:46.901Z,27.07
2019-04-05T12:38:31.592Z,28.70
2019-04-05T12:41:01.856Z,33.30
2019-04-05T12:43:31.223Z,33.80
2019-04-05T12:46:00.717Z,27.30
2019-04-05T12:48:31.355Z,35.17
2019-04-05T12:51:05.460Z,38.83
2019-04-05T12:53:35.265Z,31.47
2019-04-05T12:56:06.245Z,35.17
2019-04-05T12:58:36.134Z,28.57
2019-04-05T13:01:08.320Z,32.30
2019-04-05T13:03:37.766Z,27.20
2019-04-05T13:06:07.589Z,28.80
2019-04-05T13:08:38.295Z,30.03
2019-04-05T13:11:07.973Z,37.00
2019-04-05T13:13:38.910Z,33.30
2019-04-05T13:16:10.799Z,29.60
2019-04-05T13:18:40.210Z,42.60
2019-04-05T13:21:15.612Z,31.17
2019-04-05T13:23:45.199Z,27.83
2019-04-05T13:26:16.342Z,28.80
2019-04-05T13:28:48.289Z,34.53
2019-04-05T13:31:18.984Z,34.97
2019-04-05T13:33:49.006Z,31.00
2019-04-05T13:36:18.658Z,36.50
2019-04-05T13:38:54.716Z,33.27
2019-04-05T13:41:19.785Z,29.13
2019-04-05T13:43:49.876Z,28.23
2019-04-05T13:46:22.678Z,30.87
2019-04-05T13:48:51.891Z,30.47
2019-04-05T13:51:27.839Z,33.87
2019-04-05T13:53:53.204Z,23.30
2019-04-05T13:56:22.854Z,26.50
2019-04-05T13:58:52.339Z,36.47
2019-04-05T14:01:23.188Z,30.60
2019-04-05T14:03:53.511Z,32.70
2019-04-05T14:06:25.404Z,36.77
2019-04-05T14:08:55.897Z,35.53
2019-04-05T14:11:26.027Z,33.97
2019-04-05T14:13:55.965Z,26.27
2019-04-05T14:16:25.707Z,43.03
2019-04-05T14:18:54.887Z,41.10
2019-04-05T14:21:24.356Z,32.37
2019-04-05T14:23:53.951Z,28.23
2019-04-05T14:26:24.252Z,28.33
2019-04-05T14:28:53.940Z,32.43
2019-04-05T14:31:24.276Z,35.77
2019-04-05T14:33:54.793Z,29.70
2019-04-05T14:36:24.951Z,40.67
2019-04-05T14:38:54.679Z,34.23
2019-04-05T14:41:24.792Z,34.20
2019-04-05T14:43:55.220Z,26.20
2019-04-05T14:46:30.138Z,32.87
2019-04-05T14:49:00.626Z,30.27
2019-04-05T14:51:30.971Z,39.80
2019-04-05T14:54:01.802Z,30.63
2019-04-05T14:56:32.332Z,36.73
2019-04-05T14:59:01.635Z,30.87
2019-04-05T15:01:31.856Z,32.40
2019-04-05T15:04:01.449Z,26.70
2019-04-05T15:06:30.735Z,21.60
2019-04-05T15:09:02.082Z,29.00
2019-04-05T15:11:31.137Z,31.00
2019-04-05T15:14:00.918Z,29.20
2019-04-05T15:16:31.023Z,31.90
2019-04-05T15:19:00.337Z,27.03
2019-04-05T15:21:29.538Z,25.30
2019-04-05T15:23:59.778Z,32.93
2019-04-05T15:26:30.746Z,34.80
2019-04-05T15:29:00.938Z,30.33
2019-04-05T15:31:30.683Z,30.80
2019-04-05T15:34:00.720Z,26.43
2019-04-05T15:36:31.663Z,35.30
2019-04-05T15:39:02.606Z,31.47
2019-04-05T15:41:32.778Z,32.00
2019-04-05T15:44:05.214Z,36.60
2019-04-05T15:46:34.849Z,31.90
2019-04-05T15:49:04.382Z,36.40
2019-04-05T15:51:34.753Z,38.57
2019-04-05T15:54:04.252Z,41.63
2019-04-05T15:56:34.340Z,38.30
2019-04-05T15:59:04.809Z,32.93
2019-04-05T16:01:35.555Z,41.30
2019-04-05T16:04:05.193Z,35.73
2019-04-05T16:06:35.271Z,33.77
2019-04-05T16:09:06.342Z,33.70
2019-04-05T16:11:35.483Z,46.73
2019-04-05T16:14:05.734Z,40.87
2019-04-05T16:16:36.247Z,35.40
2019-04-05T16:19:07.095Z,44.27
2019-04-05T16:21:36.954Z,42.77
2019-04-05T16:24:06.807Z,48.23
2019-04-05T16:26:36.452Z,41.67
2019-04-05T16:29:06.310Z,40.80
2019-04-05T16:31:36.190Z,43.83
2019-04-05T16:34:06.129Z,48.30
2019-04-05T16:36:36.438Z,50.23
2019-04-05T16:39:10.333Z,43.53
2019-04-05T16:41:40.737Z,47.17
2019-04-05T16:44:10.894Z,48.10
2019-04-05T16:46:40.686Z,52.20
2019-04-05T16:49:10.861Z,38.30
2019-04-05T16:51:40.231Z,43.50
2019-04-05T16:54:09.646Z,50.97
2019-04-05T16:56:39.604Z,55.57
2019-04-05T16:59:09.567Z,44.13
2019-04-05T17:01:39.750Z,39.43
2019-04-05T17:04:09.310Z,39.23
2019-04-05T17:06:38.937Z,45.83
2019-04-05T17:09:08.785Z,45.17
2019-04-05T17:11:38.064Z,43.10
2019-04-05T17:14:07.998Z,50.23
2019-04-05T17:16:37.487Z,43.67
2019-04-05T17:19:06.691Z,48.30
2019-04-05T17:21:36.274Z,45.40
2019-04-05T17:24:05.991Z,54.03
2019-04-05T17:26:35.317Z,52.20
2019-04-05T17:29:04.644Z,53.60
2019-04-05T17:31:34.619Z,43.33
2019-04-05T17:34:03.908Z,42.00
2019-04-05T17:36:34.838Z,51.63
2019-04-05T17:39:05.811Z,48.20
2019-04-05T17:41:35.933Z,44.33
2019-04-05T17:44:05.190Z,42.23
2019-04-05T17:46:34.610Z,47.47
